createdAt,value
2018-07-30T00:00:47.409Z,98299.01
2018-07-30T00:02:59.693Z,98302.64
2018-07-30T00:05:12.324Z,98297.84
2018-07-30T00:07:24.498Z,98304.00
2018-07-30T00:09:36.709Z,98304.28
2018-07-30T00:11:48.899Z,98303.27
2018-07-30T00:14:01.107Z,98304.40
2018-07-30T00:16:13.331Z,98297.94
2018-07-30T00:18:25.523Z,98301.85
2018-07-30T00:20:37.761Z,98296.80
2018-07-30T00:22:49.943Z,98298.26
2018-07-30T00:25:02.172Z,98303.02
2018-07-30T00:27:14.350Z,98306.58
2018-07-30T00:29:26.563Z,98305.53
2018-07-30T00:31:38.711Z,98313.38
2018-07-30T00:33:50.924Z,98314.70
2018-07-30T00:36:03.167Z,98316.62
2018-07-30T00:38:15.351Z,98311.80
2018-07-30T00:40:27.608Z,98317.87
2018-07-30T00:42:39.814Z,98313.58
2018-07-30T00:44:52.038Z,98323.64
2018-07-30T00:47:04.271Z,98318.56
2018-07-30T00:49:16.436Z,98317.94
2018-07-30T00:51:28.943Z,98318.83
2018-07-30T00:53:41.158Z,98316.32
2018-07-30T00:55:53.464Z,98316.02
2018-07-30T00:58:05.691Z,98314.41
2018-07-30T01:00:17.974Z,98312.59
2018-07-30T01:02:30.207Z,98312.09
2018-07-30T01:04:42.412Z,98313.68
2018-07-30T01:06:54.696Z,98320.54
2018-07-30T01:09:08.263Z,98317.87
2018-07-30T01:11:20.544Z,98322.16
2018-07-30T01:13:32.770Z,98322.16
2018-07-30T01:15:44.963Z,98326.11
2018-07-30T01:17:57.275Z,98324.06
2018-07-30T01:20:09.456Z,98321.72
2018-07-30T01:22:21.673Z,98320.36
2018-07-30T01:24:33.865Z,98320.62
2018-07-30T01:26:46.091Z,98320.72
2018-07-30T01:28:59.080Z,98318.66
2018-07-30T01:31:11.258Z,98323.44
2018-07-30T01:33:23.522Z,98318.66
2018-07-30T01:35:35.724Z,98322.44
2018-07-30T01:37:47.926Z,98315.70
2018-07-30T01:40:00.138Z,98323.15
2018-07-30T01:42:12.306Z,98318.53
2018-07-30T01:44:24.514Z,98329.50
2018-07-30T01:46:36.706Z,98332.13
2018-07-30T01:48:48.947Z,98332.49
2018-07-30T01:51:01.159Z,98324.87
2018-07-30T01:53:13.500Z,98333.61
2018-07-30T01:55:25.763Z,98331.84
2018-07-30T01:57:37.947Z,98331.67
2018-07-30T01:59:50.157Z,98327.36
2018-07-30T02:02:02.356Z,98327.52
2018-07-30T02:04:14.590Z,98334.72
2018-07-30T02:06:26.807Z,98332.54
2018-07-30T02:08:39.041Z,98325.16
2018-07-30T02:10:51.318Z,98332.27
2018-07-30T02:13:03.547Z,98339.92
2018-07-30T02:15:16.480Z,98337.36
2018-07-30T02:17:28.654Z,98338.13
2018-07-30T02:19:40.826Z,98345.05
2018-07-30T02:21:53.027Z,98341.10
2018-07-30T02:24:05.315Z,98347.56
2018-07-30T02:26:17.515Z,98346.16
2018-07-30T02:28:29.818Z,98347.69
2018-07-30T02:30:42.007Z,98350.04
2018-07-30T02:32:54.204Z,98347.77
2018-07-30T02:35:07.406Z,98350.41
2018-07-30T02:37:19.674Z,98355.59
2018-07-30T02:39:31.886Z,98357.55
2018-07-30T02:41:44.097Z,98355.87
2018-07-30T02:43:56.282Z,98359.70
2018-07-30T02:46:08.439Z,98361.34
2018-07-30T02:48:20.639Z,98360.19
2018-07-30T02:50:32.865Z,98364.98
2018-07-30T02:52:45.072Z,98362.91
2018-07-30T02:54:57.336Z,98367.29
2018-07-30T02:57:09.540Z,98367.57
2018-07-30T02:59:21.783Z,98366.26
2018-07-30T03:01:33.998Z,98364.39
2018-07-30T03:03:46.202Z,98366.20
2018-07-30T03:05:58.388Z,98362.13
2018-07-30T03:08:10.694Z,98364.39
2018-07-30T03:10:22.875Z,98369.32
2018-07-30T03:12:35.147Z,98373.55
2018-07-30T03:14:47.333Z,98372.38
2018-07-30T03:16:59.542Z,98377.65
2018-07-30T03:19:11.763Z,98376.33
2018-07-30T03:21:23.931Z,98373.64
2018-07-30T03:23:36.127Z,98372.94
2018-07-30T03:25:48.681Z,98374.95
2018-07-30T03:28:00.919Z,98379.73
2018-07-30T03:30:13.104Z,98381.31
2018-07-30T03:32:25.329Z,98383.55
2018-07-30T03:34:37.539Z,98388.87
2018-07-30T03:36:49.763Z,98381.03
2018-07-30T03:39:02.017Z,98387.05
2018-07-30T03:41:14.226Z,98386.16
2018-07-30T03:43:26.446Z,98383.95
2018-07-30T03:45:38.627Z,98385.27
2018-07-30T03:47:50.831Z,98382.42
2018-07-30T03:50:03.180Z,98387.46
2018-07-30T03:52:15.377Z,98388.59
2018-07-30T03:54:27.577Z,98390.26
2018-07-30T03:56:39.757Z,98390.53
2018-07-30T03:58:52.522Z,98392.70
2018-07-30T04:01:04.729Z,98392.77
2018-07-30T04:03:16.966Z,98390.53
2018-07-30T04:05:29.182Z,98393.80
2018-07-30T04:07:41.403Z,98393.80
2018-07-30T04:09:53.610Z,98396.69
2018-07-30T04:12:05.959Z,98394.13
2018-07-30T04:14:18.187Z,98396.64
2018-07-30T04:16:34.366Z,98397.20
2018-07-30T04:18:46.539Z,98391.23
2018-07-30T04:20:58.767Z,98392.97
2018-07-30T04:23:10.961Z,98396.69
2018-07-30T04:25:23.190Z,98395.98
2018-07-30T04:27:35.420Z,98395.72
2018-07-30T04:29:47.651Z,98393.53
2018-07-30T04:31:59.921Z,98402.80
2018-07-30T04:34:12.144Z,98402.22
2018-07-30T04:36:24.359Z,98402.94
2018-07-30T04:38:36.567Z,98405.27
2018-07-30T04:40:48.777Z,98408.41
2018-07-30T04:43:01.213Z,98408.19
2018-07-30T04:45:13.473Z,98404.91
2018-07-30T04:47:25.700Z,98407.05
2018-07-30T04:49:37.879Z,98407.05
2018-07-30T04:51:50.099Z,98403.64
2018-07-30T04:54:02.359Z,98402.25
2018-07-30T04:56:14.549Z,98401.75
2018-07-30T04:58:26.731Z,98405.47
2018-07-30T05:00:39.023Z,98410.02
2018-07-30T05:02:51.223Z,98405.05
2018-07-30T05:05:04.184Z,98399.42
2018-07-30T05:07:16.415Z,98404.29
2018-07-30T05:09:28.582Z,98398.98
2018-07-30T05:11:40.796Z,98396.92
2018-07-30T05:13:52.968Z,98405.12
2018-07-30T05:16:05.235Z,98406.42
2018-07-30T05:18:17.655Z,98407.03
2018-07-30T05:20:29.865Z,98405.83
2018-07-30T05:22:42.083Z,98405.80
2018-07-30T05:24:54.324Z,98409.06
2018-07-30T05:27:06.512Z,98408.66
2018-07-30T05:29:18.699Z,98412.55
2018-07-30T05:31:31.019Z,98410.02
2018-07-30T05:33:43.207Z,98410.23
2018-07-30T05:35:55.401Z,98409.66
2018-07-30T05:38:07.652Z,98409.76
2018-07-30T05:40:19.815Z,98412.77
2018-07-30T05:42:32.263Z,98410.69
2018-07-30T05:44:44.511Z,98407.80
2018-07-30T05:46:56.725Z,98409.47
2018-07-30T05:49:09.003Z,98411.71
2018-07-30T05:51:21.250Z,98415.20
2018-07-30T05:53:33.504Z,98406.97
2018-07-30T05:55:45.678Z,98413.30
2018-07-30T05:57:58.153Z,98410.52
2018-07-30T06:00:10.517Z,98418.98
2018-07-30T06:02:22.894Z,98416.70
2018-07-30T06:04:35.246Z,98416.59
2018-07-30T06:06:48.768Z,98417.09
2018-07-30T06:09:01.291Z,98412.64
2018-07-30T06:11:13.846Z,98417.11
2018-07-30T06:13:26.289Z,98415.13
2018-07-30T06:15:38.499Z,98417.61
2018-07-30T06:17:50.727Z,98420.74
2018-07-30T06:20:03.664Z,98423.08
2018-07-30T06:22:15.844Z,98425.22
2018-07-30T06:24:28.039Z,98426.50
2018-07-30T06:26:40.291Z,98423.31
2018-07-30T06:28:52.511Z,98429.09
2018-07-30T06:31:04.743Z,98436.33
2018-07-30T06:33:16.970Z,98432.50
2018-07-30T06:35:29.170Z,98432.50
2018-07-30T06:37:41.355Z,98438.27
2018-07-30T06:39:53.630Z,98427.27
2018-07-30T06:42:05.844Z,98429.05
2018-07-30T06:44:18.049Z,98427.12
2018-07-30T06:46:30.294Z,98431.02
2018-07-30T06:48:42.526Z,98427.94
2018-07-30T06:50:54.767Z,98432.31
2018-07-30T06:53:06.982Z,98428.99
2018-07-30T06:55:19.296Z,98435.67
2018-07-30T06:57:31.516Z,98429.83
2018-07-30T06:59:43.712Z,98432.39
2018-07-30T07:01:56.030Z,98427.02
2018-07-30T07:04:08.462Z,98426.80
2018-07-30T07:06:20.727Z,98424.58
2018-07-30T07:08:32.927Z,98430.50
2018-07-30T07:10:45.181Z,98429.34
2018-07-30T07:12:57.389Z,98431.51
2018-07-30T07:15:11.848Z,98427.23
2018-07-30T07:17:24.060Z,98427.45
2018-07-30T07:19:36.419Z,98434.73
2018-07-30T07:21:48.674Z,98433.45
2018-07-30T07:24:01.247Z,98429.94
2018-07-30T07:26:13.510Z,98434.08
2018-07-30T07:28:25.725Z,98431.41
2018-07-30T07:30:37.980Z,98437.71
2018-07-30T07:32:50.446Z,98431.13
2018-07-30T07:35:02.851Z,98435.97
2018-07-30T07:37:15.048Z,98433.37
2018-07-30T07:39:27.514Z,98428.59
2018-07-30T07:41:39.957Z,98426.88
2018-07-30T07:43:52.271Z,98432.73
2018-07-30T07:46:04.450Z,98427.41
2018-07-30T07:48:16.755Z,98431.01
2018-07-30T07:50:28.969Z,98429.56
2018-07-30T07:52:41.187Z,98430.71
2018-07-30T07:54:53.428Z,98432.57
2018-07-30T07:57:05.694Z,98433.58
2018-07-30T07:59:18.638Z,98437.06
2018-07-30T08:01:31.046Z,98433.55
2018-07-30T08:03:43.650Z,98432.90
2018-07-30T08:05:55.909Z,98430.71
2018-07-30T08:08:08.171Z,98437.27
2018-07-30T08:10:20.447Z,98429.02
2018-07-30T08:12:33.083Z,98429.45
2018-07-30T08:14:45.569Z,98436.26
2018-07-30T08:16:58.384Z,98431.30
2018-07-30T08:19:10.961Z,98443.10
2018-07-30T08:21:23.260Z,98446.31
2018-07-30T08:23:35.503Z,98447.94
2018-07-30T08:25:47.769Z,98443.94
2018-07-30T08:27:59.991Z,98442.86
2018-07-30T08:30:12.308Z,98441.23
2018-07-30T08:32:24.522Z,98439.73
2018-07-30T08:34:36.743Z,98439.65
2018-07-30T08:36:49.092Z,98439.16
2018-07-30T08:39:01.275Z,98441.70
2018-07-30T08:41:13.591Z,98437.58
2018-07-30T08:43:25.859Z,98441.41
2018-07-30T08:45:38.155Z,98444.42
2018-07-30T08:47:50.498Z,98444.13
2018-07-30T08:50:03.135Z,98441.36
2018-07-30T08:52:15.390Z,98444.36
2018-07-30T08:54:27.643Z,98440.85
2018-07-30T08:56:39.860Z,98441.80
2018-07-30T08:58:52.412Z,98446.87
2018-07-30T09:01:04.690Z,98440.98
2018-07-30T09:03:16.938Z,98439.36
2018-07-30T09:05:29.179Z,98439.49
2018-07-30T09:07:41.407Z,98440.63
2018-07-30T09:09:53.775Z,98436.84
2018-07-30T09:12:06.051Z,98437.50
2018-07-30T09:14:18.278Z,98438.08
2018-07-30T09:16:30.508Z,98435.71
2018-07-30T09:18:42.723Z,98437.95
2018-07-30T09:20:54.979Z,98440.77
2018-07-30T09:23:07.188Z,98434.94
2018-07-30T09:25:19.366Z,98435.67
2018-07-30T09:27:31.619Z,98432.45
2018-07-30T09:29:43.817Z,98433.02
2018-07-30T09:31:56.129Z,98434.38
2018-07-30T09:34:08.640Z,98428.55
2018-07-30T09:36:22.658Z,98431.22
2018-07-30T09:38:35.034Z,98427.34
2018-07-30T09:40:47.253Z,98434.05
2018-07-30T09:42:59.483Z,98424.81
2018-07-30T09:45:11.713Z,98428.92
2018-07-30T09:47:23.922Z,98426.98
2018-07-30T09:49:36.150Z,98424.25
2018-07-30T09:51:48.415Z,98427.77
2018-07-30T09:54:00.631Z,98433.48
2018-07-30T09:56:12.895Z,98426.12
2018-07-30T09:58:25.092Z,98424.20
2018-07-30T10:00:42.994Z,98425.69
2018-07-30T10:02:55.287Z,98426.78
2018-07-30T10:05:07.577Z,98433.59
2018-07-30T10:07:19.782Z,98432.55
2018-07-30T10:09:32.039Z,98428.43
2018-07-30T10:11:44.312Z,98422.39
2018-07-30T10:13:56.522Z,98421.17
2018-07-30T10:16:08.714Z,98422.83
2018-07-30T10:18:21.059Z,98426.17
2018-07-30T10:20:33.234Z,98420.81
2018-07-30T10:22:45.491Z,98419.00
2018-07-30T10:24:57.759Z,98418.00
2018-07-30T10:27:09.951Z,98417.41
2018-07-30T10:29:22.209Z,98407.11
2018-07-30T10:31:34.434Z,98407.30
2018-07-30T10:33:46.665Z,98404.55
2018-07-30T10:35:58.963Z,98405.52
2018-07-30T10:38:11.206Z,98403.22
2018-07-30T10:40:23.431Z,98401.09
2018-07-30T10:42:35.666Z,98401.15
2018-07-30T10:44:47.899Z,98393.46
2018-07-30T10:47:00.131Z,98395.63
2018-07-30T10:49:12.351Z,98396.02
2018-07-30T10:51:24.559Z,98400.86
2018-07-30T10:53:36.769Z,98396.11
2018-07-30T10:55:48.982Z,98392.81
2018-07-30T10:58:01.179Z,98391.02
2018-07-30T11:00:13.457Z,98391.19
2018-07-30T11:02:25.660Z,98390.02
2018-07-30T11:04:39.650Z,98380.83
2018-07-30T11:06:51.845Z,98390.89
2018-07-30T11:09:06.846Z,98387.48
2018-07-30T11:11:19.122Z,98389.00
2018-07-30T11:13:31.328Z,98379.00
2018-07-30T11:15:43.564Z,98385.29
2018-07-30T11:17:55.830Z,98382.16
2018-07-30T11:20:08.028Z,98377.54
2018-07-30T11:22:20.255Z,98374.14
2018-07-30T11:24:33.082Z,98371.58
2018-07-30T11:26:45.358Z,98376.13
2018-07-30T11:28:57.579Z,98372.56
2018-07-30T11:31:09.802Z,98372.91
2018-07-30T11:33:22.054Z,98370.72
2018-07-30T11:35:34.642Z,98362.91
2018-07-30T11:37:46.893Z,98359.25
2018-07-30T11:39:59.112Z,98361.33
2018-07-30T11:42:11.332Z,98360.74
2018-07-30T11:44:23.588Z,98355.97
2018-07-30T11:46:35.807Z,98357.31
2018-07-30T11:48:48.084Z,98357.09
2018-07-30T11:51:01.052Z,98342.32
2018-07-30T11:53:13.316Z,98349.08
2018-07-30T11:55:25.766Z,98345.70
2018-07-30T11:57:37.994Z,98337.77
2018-07-30T11:59:50.229Z,98340.66
2018-07-30T12:02:02.526Z,98337.26
2018-07-30T12:04:14.794Z,98341.33
2018-07-30T12:06:27.053Z,98337.08
2018-07-30T12:08:39.318Z,98342.67
2018-07-30T12:10:51.863Z,98331.28
2018-07-30T12:13:04.090Z,98334.23
2018-07-30T12:15:16.341Z,98327.43
2018-07-30T12:17:28.562Z,98329.06
2018-07-30T12:19:40.887Z,98323.30
2018-07-30T12:21:53.220Z,98323.55
2018-07-30T12:24:05.459Z,98322.15
2018-07-30T12:26:17.769Z,98316.87
2018-07-30T12:28:29.995Z,98317.03
2018-07-30T12:30:42.286Z,98318.50
2018-07-30T12:32:54.455Z,98316.90
2018-07-30T12:35:06.701Z,98309.55
2018-07-30T12:37:18.922Z,98311.77
2018-07-30T12:39:31.208Z,98304.29
2018-07-30T12:41:43.412Z,98304.02
2018-07-30T12:43:55.611Z,98298.56
2018-07-30T12:46:07.903Z,98305.19
2018-07-30T12:48:20.146Z,98300.92
2018-07-30T12:50:32.502Z,98300.39
2018-07-30T12:52:44.699Z,98305.98
2018-07-30T12:54:56.924Z,98304.30
2018-07-30T12:57:09.145Z,98302.83
2018-07-30T12:59:21.338Z,98304.97
2018-07-30T13:01:33.583Z,98304.97
2018-07-30T13:03:45.876Z,98306.45
2018-07-30T13:05:58.181Z,98303.56
2018-07-30T13:08:10.467Z,98302.13
2018-07-30T13:10:22.702Z,98301.45
2018-07-30T13:12:34.914Z,98298.77
2018-07-30T13:14:47.159Z,98295.88
2018-07-30T13:16:59.396Z,98291.91
2018-07-30T13:19:11.631Z,98288.88
2018-07-30T13:21:23.871Z,98285.03
2018-07-30T13:23:36.091Z,98285.05
2018-07-30T13:25:48.287Z,98275.90
2018-07-30T13:28:00.566Z,98287.57
2018-07-30T13:30:12.811Z,98286.56
2018-07-30T13:32:25.020Z,98283.53
2018-07-30T13:34:37.231Z,98274.47
2018-07-30T13:36:49.467Z,98268.14
2018-07-30T13:39:01.700Z,98268.39
2018-07-30T13:41:13.979Z,98265.17
2018-07-30T13:43:26.224Z,98261.66
2018-07-30T13:45:38.409Z,98264.36
2018-07-30T13:47:50.636Z,98256.55
2018-07-30T13:50:03.053Z,98255.80
2018-07-30T13:52:15.282Z,98254.67
2018-07-30T13:54:27.555Z,98255.68
2018-07-30T13:56:39.737Z,98259.50
2018-07-30T13:58:51.922Z,98258.56
2018-07-30T14:01:04.319Z,98261.98
2018-07-30T14:03:16.551Z,98254.19
2018-07-30T14:05:28.791Z,98254.56
2018-07-30T14:07:41.038Z,98257.67
2018-07-30T14:09:53.330Z,98258.61
2018-07-30T14:12:05.871Z,98256.98
2018-07-30T14:14:18.076Z,98253.00
2018-07-30T14:16:30.420Z,98250.94
2018-07-30T14:18:42.638Z,98251.41
2018-07-30T14:20:54.956Z,98246.02
2018-07-30T14:23:07.271Z,98250.06
2018-07-30T14:25:19.511Z,98249.31
2018-07-30T14:27:31.782Z,98241.80
2018-07-30T14:29:44.015Z,98238.41
2018-07-30T14:31:56.240Z,98236.95
2018-07-30T14:34:08.524Z,98240.59
2018-07-30T14:36:20.777Z,98237.61
2018-07-30T14:38:33.016Z,98231.69
2018-07-30T14:40:45.300Z,98233.85
2018-07-30T14:42:57.516Z,98228.52
2018-07-30T14:45:09.717Z,98230.09
2018-07-30T14:47:21.970Z,98224.08
2018-07-30T14:49:34.204Z,98224.30
2018-07-30T14:51:46.477Z,98222.67
2018-07-30T14:53:58.694Z,98217.83
2018-07-30T14:56:10.963Z,98217.02
2018-07-30T14:58:23.322Z,98210.50
2018-07-30T15:00:35.530Z,98207.80
2018-07-30T15:02:47.769Z,98207.78
2018-07-30T15:05:00.015Z,98203.42
2018-07-30T15:07:12.331Z,98203.42
2018-07-30T15:09:24.527Z,98203.06
2018-07-30T15:11:37.247Z,98198.15
2018-07-30T15:13:49.609Z,98193.83
2018-07-30T15:16:01.817Z,98197.87
2018-07-30T15:18:14.754Z,98194.77
2018-07-30T15:20:27.015Z,98190.54
2018-07-30T15:22:39.231Z,98198.53
2018-07-30T15:24:51.553Z,98192.30
2018-07-30T15:27:03.808Z,98194.66
2018-07-30T15:29:16.024Z,98188.77
2018-07-30T15:31:28.222Z,98192.46
2018-07-30T15:33:40.480Z,98192.91
2018-07-30T15:35:52.695Z,98188.52
2018-07-30T15:38:04.919Z,98192.31
2018-07-30T15:40:17.150Z,98190.37
2018-07-30T15:42:29.400Z,98193.16
2018-07-30T15:44:41.659Z,98186.64
2018-07-30T15:46:53.942Z,98192.91
2018-07-30T15:49:06.106Z,98194.16
2018-07-30T15:51:18.336Z,98187.83
2018-07-30T15:53:30.598Z,98194.28
2018-07-30T15:55:42.820Z,98188.08
2018-07-30T15:57:55.023Z,98186.02
2018-07-30T16:00:07.953Z,98184.98
2018-07-30T16:06:56.273Z,98179.34
2018-07-30T16:09:08.466Z,98178.09
2018-07-30T16:11:20.750Z,98180.53
2018-07-30T16:13:32.996Z,98182.13
2018-07-30T16:15:45.236Z,98180.31
2018-07-30T16:17:57.510Z,98177.38
2018-07-30T16:20:09.770Z,98176.34
2018-07-30T16:22:21.958Z,98170.78
2018-07-30T16:24:34.199Z,98174.28
2018-07-30T16:26:46.427Z,98169.44
2018-07-30T16:28:58.666Z,98179.66
2018-07-30T16:31:10.851Z,98173.69
2018-07-30T16:33:23.101Z,98176.69
2018-07-30T16:35:35.310Z,98175.62
2018-07-30T16:37:47.512Z,98173.13
2018-07-30T16:39:59.759Z,98175.69
2018-07-30T16:42:12.062Z,98178.63
2018-07-30T16:44:24.368Z,98178.09
2018-07-30T16:46:36.574Z,98177.22
2018-07-30T16:48:48.883Z,98183.75
2018-07-30T16:51:01.170Z,98182.48
2018-07-30T16:55:31.362Z,98179.44
2018-07-30T16:57:43.598Z,98183.72
2018-07-30T16:59:55.847Z,98176.12
2018-07-30T17:02:08.158Z,98183.21
2018-07-30T17:04:20.429Z,98179.02
2018-07-30T17:06:32.657Z,98188.53
2018-07-30T17:08:44.920Z,98185.28
2018-07-30T17:10:57.127Z,98180.83
2018-07-30T17:13:09.371Z,98181.70
2018-07-30T17:15:21.611Z,98181.99
2018-07-30T17:17:33.821Z,98183.62
2018-07-30T17:19:46.031Z,98179.91
2018-07-30T17:21:58.269Z,98172.83
2018-07-30T17:24:10.465Z,98183.80
2018-07-30T17:26:22.750Z,98187.02
2018-07-30T17:28:35.224Z,98190.91
2018-07-30T17:30:47.688Z,98189.53
2018-07-30T17:33:00.022Z,98190.56
2018-07-30T17:35:12.304Z,98190.52
2018-07-30T17:37:24.570Z,98190.80
2018-07-30T17:39:37.155Z,98188.93
2018-07-30T17:41:49.745Z,98196.18
2018-07-30T17:44:02.352Z,98194.02
2018-07-30T17:46:14.678Z,98197.28
2018-07-30T17:48:27.181Z,98203.02
2018-07-30T17:50:39.751Z,98197.35
2018-07-30T17:52:52.323Z,98200.78
2018-07-30T17:55:04.879Z,98203.71
2018-07-30T17:57:17.446Z,98199.16
2018-07-30T17:59:29.766Z,98202.30
2018-07-30T18:01:42.112Z,98204.09
2018-07-30T18:03:54.432Z,98206.11
2018-07-30T18:06:06.699Z,98206.05
2018-07-30T18:08:18.942Z,98206.21
2018-07-30T18:10:31.204Z,98211.23
2018-07-30T18:12:43.644Z,98213.89
2018-07-30T18:14:55.890Z,98221.55
2018-07-30T18:17:08.147Z,98219.70
2018-07-30T18:19:20.447Z,98230.62
2018-07-30T18:21:32.742Z,98229.76
2018-07-30T18:23:44.961Z,98222.13
2018-07-30T18:25:57.241Z,98229.91
2018-07-30T18:28:09.546Z,98231.70
2018-07-30T18:30:21.781Z,98228.34
2018-07-30T18:32:34.039Z,98232.16
2018-07-30T18:34:46.343Z,98235.14
2018-07-30T18:36:58.593Z,98239.48
2018-07-30T18:39:10.846Z,98235.20
2018-07-30T18:41:23.050Z,98242.89
2018-07-30T18:43:35.322Z,98245.25
2018-07-30T18:45:47.539Z,98247.20
2018-07-30T18:47:59.812Z,98252.88
2018-07-30T18:50:12.030Z,98249.58
2018-07-30T18:52:24.324Z,98255.14
2018-07-30T18:54:36.678Z,98254.73
2018-07-30T18:56:48.904Z,98261.84
2018-07-30T18:59:01.166Z,98254.98
2018-07-30T19:01:13.391Z,98257.68
2018-07-30T19:03:25.682Z,98263.33
2018-07-30T19:05:38.053Z,98265.88
2018-07-30T19:07:50.402Z,98270.63
2018-07-30T19:10:02.970Z,98271.73
2018-07-30T19:12:15.171Z,98272.98
2018-07-30T19:14:27.619Z,98279.52
2018-07-30T19:16:39.942Z,98276.59
2018-07-30T19:18:52.431Z,98282.64
2018-07-30T19:21:04.974Z,98285.27
2018-07-30T19:23:17.214Z,98283.27
2018-07-30T19:25:29.436Z,98278.20
2018-07-30T19:27:41.907Z,98287.63
2018-07-30T19:29:54.469Z,98286.87
2018-07-30T19:32:06.710Z,98285.56
2018-07-30T19:34:18.945Z,98292.79
2018-07-30T19:36:31.189Z,98291.93
2018-07-30T19:38:43.734Z,98296.41
2018-07-30T19:40:56.281Z,98300.30
2018-07-30T19:43:08.567Z,98294.67
2018-07-30T19:45:21.070Z,98304.34
2018-07-30T19:47:33.551Z,98295.47
2018-07-30T19:49:45.996Z,98303.95
2018-07-30T19:51:58.251Z,98305.00
2018-07-30T19:54:10.566Z,98308.17
2018-07-30T19:56:22.842Z,98308.86
2018-07-30T19:58:35.526Z,98312.25
2018-07-30T20:00:47.820Z,98312.77
2018-07-30T20:03:00.125Z,98310.72
2018-07-30T20:05:12.630Z,98319.16
2018-07-30T20:07:25.238Z,98313.08
2018-07-30T20:09:37.750Z,98314.27
2018-07-30T20:11:50.276Z,98319.34
2018-07-30T20:14:02.564Z,98320.88
2018-07-30T20:16:15.079Z,98323.67
2018-07-30T20:18:27.351Z,98331.58
2018-07-30T20:20:39.829Z,98330.02
2018-07-30T20:22:52.372Z,98338.13
2018-07-30T20:25:05.477Z,98341.46
2018-07-30T20:27:17.770Z,98336.11
2018-07-30T20:29:29.998Z,98338.77
2018-07-30T20:31:42.471Z,98339.77
2018-07-30T20:33:56.407Z,98336.84
2018-07-30T20:36:08.637Z,98339.27
2018-07-30T20:38:20.850Z,98343.47
2018-07-30T20:40:33.059Z,98341.44
2018-07-30T20:42:45.261Z,98343.30
2018-07-30T20:44:57.563Z,98347.29
2018-07-30T20:47:09.739Z,98348.52
2018-07-30T20:49:22.050Z,98344.89
2018-07-30T20:51:34.239Z,98351.23
2018-07-30T20:53:46.493Z,98348.63
2018-07-30T20:55:58.720Z,98348.92
2018-07-30T20:58:10.958Z,98356.80
2018-07-30T21:00:23.168Z,98357.51
2018-07-30T21:02:35.424Z,98360.95
2018-07-30T21:04:47.670Z,98357.75
2018-07-30T21:06:59.895Z,98363.78
2018-07-30T21:09:12.107Z,98365.50
2018-07-30T21:11:24.350Z,98366.78
2018-07-30T21:13:36.555Z,98365.11
2018-07-30T21:15:48.838Z,98368.39
2018-07-30T21:18:01.117Z,98368.04
2018-07-30T21:20:13.377Z,98365.77
2018-07-30T21:22:25.584Z,98368.12
2018-07-30T21:24:37.838Z,98366.31
2018-07-30T21:26:50.044Z,98365.84
2018-07-30T21:29:02.304Z,98368.00
2018-07-30T21:31:14.533Z,98364.39
2018-07-30T21:33:26.880Z,98371.27
2018-07-30T21:35:39.086Z,98363.98
2018-07-30T21:37:51.578Z,98362.70
2018-07-30T21:40:04.255Z,98364.02
2018-07-30T21:42:16.486Z,98359.72
2018-07-30T21:44:28.704Z,98363.77
2018-07-30T21:46:41.924Z,98359.81
2018-07-30T21:48:54.171Z,98366.28
2018-07-30T21:51:06.607Z,98366.68
2018-07-30T21:53:18.848Z,98364.89
2018-07-30T21:55:31.455Z,98365.08
2018-07-30T21:57:43.669Z,98364.77
2018-07-30T21:59:55.960Z,98365.95
2018-07-30T22:02:08.162Z,98364.65
2018-07-30T22:04:20.410Z,98366.14
2018-07-30T22:06:32.679Z,98368.80
2018-07-30T22:08:45.000Z,98362.64
2018-07-30T22:10:57.234Z,98367.78
2018-07-30T22:13:09.434Z,98371.77
2018-07-30T22:15:22.126Z,98371.77
2018-07-30T22:17:34.419Z,98375.59
2018-07-30T22:19:46.619Z,98375.08
2018-07-30T22:21:58.824Z,98373.93
2018-07-30T22:24:11.075Z,98382.08
2018-07-30T22:26:23.332Z,98377.75
2018-07-30T22:28:35.527Z,98381.72
2018-07-30T22:30:47.817Z,98384.58
2018-07-30T22:33:00.030Z,98385.77
2018-07-30T22:35:12.256Z,98382.80
2018-07-30T22:37:24.473Z,98385.61
2018-07-30T22:39:36.711Z,98379.83
2018-07-30T22:41:48.983Z,98384.64
2018-07-30T22:44:01.226Z,98375.34
2018-07-30T22:46:13.434Z,98376.81
2018-07-30T22:48:25.623Z,98373.88
2018-07-30T22:50:37.889Z,98373.03
2018-07-30T22:52:50.571Z,98374.89
2018-07-30T22:55:02.867Z,98373.07
2018-07-30T22:57:15.078Z,98373.06
2018-07-30T22:59:27.327Z,98379.38
2018-07-30T23:01:39.644Z,98375.16
2018-07-30T23:03:51.924Z,98373.20
2018-07-30T23:06:04.171Z,98371.52
2018-07-30T23:08:16.359Z,98371.05
2018-07-30T23:10:28.806Z,98371.69
2018-07-30T23:12:41.143Z,98366.72
2018-07-30T23:14:53.355Z,98365.58
2018-07-30T23:17:05.527Z,98366.05
2018-07-30T23:19:17.735Z,98356.45
2018-07-30T23:21:30.104Z,98366.04
2018-07-30T23:23:42.331Z,98354.80
2018-07-30T23:25:54.544Z,98358.92
2018-07-30T23:28:06.731Z,98353.30
2018-07-30T23:30:18.954Z,98354.13
2018-07-30T23:32:31.157Z,98360.23
2018-07-30T23:34:43.369Z,98354.77
2018-07-30T23:36:55.606Z,98348.51
2018-07-30T23:39:09.574Z,98349.47
2018-07-30T23:41:21.821Z,98353.61
2018-07-30T23:43:34.003Z,98350.11
2018-07-30T23:45:46.191Z,98348.96
2018-07-30T23:47:58.394Z,98345.67
2018-07-30T23:50:10.594Z,98349.64
2018-07-30T23:52:22.895Z,98339.88
2018-07-30T23:54:35.119Z,98338.52
2018-07-30T23:56:47.391Z,98344.30
2018-07-30T23:58:59.589Z,98340.00
